createdAt,value
2017-09-02T00:00:38.627Z,66.90
2017-09-02T00:03:06.869Z,66.80
2017-09-02T00:05:35.191Z,66.90
2017-09-02T00:08:03.462Z,66.80
2017-09-02T00:10:31.746Z,67.10
2017-09-02T00:12:59.993Z,67.10
2017-09-02T00:15:28.323Z,67.40
2017-09-02T00:17:56.795Z,67.40
2017-09-02T00:20:25.052Z,66.80
2017-09-02T00:22:53.400Z,66.90
2017-09-02T00:25:21.642Z,66.70
2017-09-02T00:27:49.965Z,66.60
2017-09-02T00:30:18.223Z,66.60
2017-09-02T00:32:46.484Z,66.90
2017-09-02T00:35:14.757Z,67.00
2017-09-02T00:37:43.003Z,66.70
2017-09-02T00:40:12.052Z,66.80
2017-09-02T00:42:40.296Z,66.80
2017-09-02T00:45:08.645Z,66.80
2017-09-02T00:47:36.875Z,66.70
2017-09-02T00:50:05.117Z,66.70
2017-09-02T00:52:33.463Z,66.60
2017-09-02T00:55:01.709Z,66.90
2017-09-02T00:57:29.962Z,66.70
2017-09-02T00:59:58.299Z,66.60
2017-09-02T01:02:26.550Z,66.60
2017-09-02T01:04:54.862Z,66.60
2017-09-02T01:07:23.139Z,67.00
2017-09-02T01:09:51.374Z,68.20
2017-09-02T01:12:20.412Z,69.80
2017-09-02T01:14:48.656Z,69.60
2017-09-02T01:17:16.918Z,70.30
2017-09-02T01:19:45.171Z,70.70
2017-09-02T01:22:13.430Z,71.50
2017-09-02T01:24:41.667Z,71.60
2017-09-02T01:27:09.994Z,71.70
2017-09-02T01:29:38.235Z,73.60
2017-09-02T01:32:06.498Z,72.30
2017-09-02T01:34:34.738Z,72.90
2017-09-02T01:37:03.008Z,72.60
2017-09-02T01:39:31.238Z,72.10
2017-09-02T01:41:59.582Z,71.80
2017-09-02T01:44:27.855Z,71.70
2017-09-02T01:46:56.259Z,72.00
2017-09-02T01:49:24.535Z,72.50
2017-09-02T01:51:52.830Z,73.40
2017-09-02T01:54:21.107Z,75.20
2017-09-02T01:56:49.343Z,75.00
2017-09-02T01:59:18.391Z,75.80
2017-09-02T02:01:46.651Z,75.70
2017-09-02T02:04:14.906Z,76.10
2017-09-02T02:06:43.147Z,76.60
2017-09-02T02:09:11.487Z,76.50
2017-09-02T02:11:39.775Z,76.30
2017-09-02T02:14:08.038Z,76.60
2017-09-02T02:16:36.283Z,76.50
2017-09-02T02:19:04.548Z,77.50
2017-09-02T02:21:32.798Z,78.50
2017-09-02T02:24:01.058Z,79.50
2017-09-02T02:26:29.296Z,79.10
2017-09-02T02:28:57.566Z,79.20
2017-09-02T02:31:25.853Z,80.90
2017-09-02T02:33:54.146Z,80.40
2017-09-02T02:36:22.393Z,79.70
2017-09-02T02:38:50.678Z,80.00
2017-09-02T02:41:18.942Z,80.80
2017-09-02T02:43:47.202Z,81.00
2017-09-02T02:46:15.449Z,81.40
2017-09-02T02:48:43.712Z,80.90
2017-09-02T02:51:11.956Z,81.50
2017-09-02T02:53:40.252Z,81.00
2017-09-02T02:56:08.517Z,81.20
2017-09-02T02:58:36.853Z,80.80
2017-09-02T03:01:05.107Z,81.50
2017-09-02T03:03:33.386Z,81.30
2017-09-02T03:06:01.669Z,81.30
2017-09-02T03:08:29.916Z,81.20
2017-09-02T03:10:58.188Z,81.90
2017-09-02T03:13:27.194Z,81.60
2017-09-02T03:15:55.599Z,81.60
2017-09-02T03:18:23.841Z,81.20
2017-09-02T03:20:52.166Z,80.50
2017-09-02T03:23:20.451Z,81.30
2017-09-02T03:25:48.712Z,80.90
2017-09-02T03:28:16.958Z,81.60
2017-09-02T03:30:45.296Z,82.00
2017-09-02T03:33:13.539Z,82.00
2017-09-02T03:35:42.566Z,83.70
2017-09-02T03:38:10.851Z,83.70
2017-09-02T03:40:39.131Z,83.80
2017-09-02T03:43:07.382Z,84.10
2017-09-02T03:45:35.641Z,84.50
2017-09-02T03:48:03.983Z,84.70
2017-09-02T03:50:32.256Z,84.60
2017-09-02T03:53:00.552Z,84.60
2017-09-02T03:55:28.808Z,84.40
2017-09-02T03:57:57.050Z,84.60
2017-09-02T04:00:25.390Z,84.50
2017-09-02T04:02:53.706Z,84.60
2017-09-02T04:05:21.960Z,84.30
2017-09-02T04:07:50.228Z,84.50
2017-09-02T04:10:18.466Z,84.30
2017-09-02T04:12:46.719Z,84.80
2017-09-02T04:15:14.970Z,84.80
2017-09-02T04:17:43.251Z,85.00
2017-09-02T04:20:11.489Z,84.90
2017-09-02T04:22:39.814Z,84.70
2017-09-02T04:25:08.054Z,84.70
2017-09-02T04:27:36.379Z,85.10
2017-09-02T04:30:04.661Z,84.70
2017-09-02T04:32:32.920Z,85.40
2017-09-02T04:35:01.258Z,85.00
2017-09-02T04:37:29.502Z,85.30
2017-09-02T04:39:57.851Z,85.70
2017-09-02T04:42:26.887Z,83.50
2017-09-02T04:44:55.180Z,83.50
2017-09-02T04:47:23.439Z,83.40
2017-09-02T04:49:51.682Z,84.00
2017-09-02T04:52:19.950Z,83.70
2017-09-02T04:54:48.196Z,82.80
2017-09-02T04:57:16.450Z,82.40
2017-09-02T04:59:44.768Z,82.70
2017-09-02T05:02:13.022Z,82.60
2017-09-02T05:04:41.318Z,82.60
2017-09-02T05:07:09.584Z,82.40
2017-09-02T05:09:37.823Z,82.30
2017-09-02T05:12:06.099Z,82.50
2017-09-02T05:14:34.431Z,82.20
2017-09-02T05:17:02.695Z,82.60
2017-09-02T05:19:30.953Z,82.90
2017-09-02T05:21:59.274Z,82.90
2017-09-02T05:24:27.546Z,82.80
2017-09-02T05:26:55.815Z,82.80
2017-09-02T05:29:24.133Z,82.70
2017-09-02T05:31:52.371Z,82.60
2017-09-02T05:34:20.999Z,82.60
2017-09-02T05:36:49.267Z,82.80
2017-09-02T05:39:17.548Z,82.90
2017-09-02T05:41:45.828Z,83.80
2017-09-02T05:44:14.642Z,83.90
2017-09-02T05:46:42.884Z,84.10
2017-09-02T05:49:11.926Z,84.10
2017-09-02T05:51:40.346Z,84.00
2017-09-02T05:54:08.706Z,84.20
2017-09-02T05:56:36.955Z,84.60
2017-09-02T05:59:05.204Z,85.00
2017-09-02T06:01:34.212Z,85.30
2017-09-02T06:04:02.479Z,85.20
2017-09-02T06:06:30.712Z,85.20
2017-09-02T06:08:58.971Z,86.00
2017-09-02T06:11:27.211Z,84.90
2017-09-02T06:13:55.487Z,85.40
2017-09-02T06:16:24.548Z,86.60
2017-09-02T06:18:52.799Z,84.90
2017-09-02T06:21:21.803Z,85.30
2017-09-02T06:23:50.051Z,86.10
2017-09-02T06:26:19.067Z,85.70
2017-09-02T06:28:48.094Z,84.50
2017-09-02T06:31:16.335Z,84.50
2017-09-02T06:33:44.593Z,83.80
2017-09-02T06:36:13.614Z,83.70
2017-09-02T06:38:42.622Z,81.70
2017-09-02T06:41:11.651Z,81.60
2017-09-02T06:43:39.885Z,81.60
2017-09-02T06:46:08.144Z,82.10
2017-09-02T06:48:36.411Z,82.40
2017-09-02T06:51:04.675Z,82.60
2017-09-02T06:53:32.925Z,82.30
2017-09-02T06:56:01.180Z,82.20
2017-09-02T06:58:29.422Z,82.20
2017-09-02T07:00:57.715Z,82.30
2017-09-02T07:03:25.983Z,82.30
2017-09-02T07:05:54.244Z,82.10
2017-09-02T07:08:22.490Z,82.20
2017-09-02T07:10:50.751Z,82.70
2017-09-02T07:13:19.012Z,81.50
2017-09-02T07:15:47.291Z,81.50
2017-09-02T07:18:15.531Z,81.60
2017-09-02T07:20:44.807Z,81.00
2017-09-02T07:23:13.018Z,80.90
2017-09-02T07:25:41.334Z,81.80
2017-09-02T07:28:09.614Z,82.10
2017-09-02T07:30:37.877Z,82.00
2017-09-02T07:33:06.118Z,81.70
2017-09-02T07:35:34.381Z,82.30
2017-09-02T07:38:02.832Z,82.70
2017-09-02T07:40:31.122Z,81.00
2017-09-02T07:42:59.387Z,81.20
2017-09-02T07:45:27.626Z,81.40
2017-09-02T07:47:55.922Z,81.60
2017-09-02T07:50:24.954Z,82.30
2017-09-02T07:52:53.235Z,82.30
2017-09-02T07:55:21.473Z,81.40
2017-09-02T07:57:49.730Z,80.90
2017-09-02T08:00:17.970Z,80.50
2017-09-02T08:02:46.222Z,79.50
2017-09-02T08:05:14.471Z,78.30
2017-09-02T08:07:42.753Z,76.60
2017-09-02T08:10:10.967Z,76.00
2017-09-02T08:12:39.220Z,75.00
2017-09-02T08:15:07.498Z,75.90
2017-09-02T08:17:35.847Z,76.30
2017-09-02T08:20:04.083Z,77.10
2017-09-02T08:22:32.348Z,77.50
2017-09-02T08:25:00.616Z,78.20
2017-09-02T08:27:28.881Z,77.70
2017-09-02T08:29:57.152Z,77.60
2017-09-02T08:32:25.453Z,77.50
2017-09-02T08:34:53.746Z,77.50
2017-09-02T08:37:21.988Z,76.00
2017-09-02T08:39:50.233Z,75.90
2017-09-02T08:42:18.902Z,75.70
2017-09-02T08:44:47.273Z,75.70
2017-09-02T08:47:15.654Z,75.50
2017-09-02T08:49:43.916Z,75.00
2017-09-02T08:52:12.160Z,75.00
2017-09-02T08:54:41.214Z,75.80
2017-09-02T08:57:09.467Z,75.70
2017-09-02T08:59:38.146Z,75.40
2017-09-02T09:02:06.993Z,75.70
2017-09-02T09:04:36.913Z,76.10
2017-09-02T09:07:06.527Z,75.90
2017-09-02T09:09:35.866Z,75.90
2017-09-02T09:12:04.196Z,75.80
2017-09-02T09:14:32.451Z,75.80
2017-09-02T09:17:00.730Z,76.20
2017-09-02T09:19:29.019Z,75.70
2017-09-02T09:21:57.269Z,75.80
2017-09-02T09:24:26.317Z,76.20
2017-09-02T09:26:54.569Z,76.20
2017-09-02T09:29:22.818Z,77.20
2017-09-02T09:31:51.870Z,77.30
2017-09-02T09:34:20.119Z,77.30
2017-09-02T09:36:48.412Z,75.90
2017-09-02T09:39:16.663Z,76.20
2017-09-02T09:41:44.899Z,75.20
2017-09-02T09:44:13.203Z,75.00
2017-09-02T09:46:41.484Z,75.70
2017-09-02T09:49:09.726Z,73.10
2017-09-02T09:51:38.003Z,72.20
2017-09-02T09:54:06.250Z,68.50
2017-09-02T09:56:35.286Z,63.30
2017-09-02T09:59:03.548Z,63.30
2017-09-02T10:01:31.803Z,63.40
2017-09-02T10:04:00.059Z,63.00
2017-09-02T10:06:28.402Z,63.50
2017-09-02T10:08:56.692Z,60.50
2017-09-02T10:11:24.986Z,59.00
2017-09-02T10:13:53.223Z,57.80
2017-09-02T10:16:21.524Z,55.20
2017-09-02T10:18:49.762Z,55.00
2017-09-02T10:21:18.830Z,52.30
2017-09-02T10:23:47.095Z,52.30
2017-09-02T10:26:15.358Z,53.10
2017-09-02T10:28:43.607Z,53.10
2017-09-02T10:31:12.771Z,52.70
2017-09-02T10:33:41.005Z,50.90
2017-09-02T10:36:09.310Z,52.30
2017-09-02T10:38:37.544Z,52.90
2017-09-02T10:41:05.808Z,53.30
2017-09-02T10:43:34.049Z,54.20
2017-09-02T10:46:02.355Z,53.10
2017-09-02T10:48:30.610Z,52.90
2017-09-02T10:50:58.895Z,53.10
2017-09-02T10:53:27.138Z,51.30
2017-09-02T10:55:56.170Z,51.30
2017-09-02T10:58:24.410Z,51.20
2017-09-02T11:00:53.493Z,53.20
2017-09-02T11:03:21.710Z,53.20
2017-09-02T11:05:50.014Z,52.70
2017-09-02T11:08:18.262Z,51.20
2017-09-02T11:10:47.288Z,51.20
2017-09-02T11:13:15.518Z,51.20
2017-09-02T11:15:43.774Z,50.20
2017-09-02T11:18:12.038Z,50.70
2017-09-02T11:20:40.320Z,50.40
2017-09-02T11:23:08.644Z,49.90
2017-09-02T11:25:37.682Z,48.70
2017-09-02T11:28:05.946Z,48.70
2017-09-02T11:30:34.186Z,48.10
2017-09-02T11:33:02.448Z,48.40
2017-09-02T11:35:30.687Z,46.90
2017-09-02T11:37:58.941Z,47.50
2017-09-02T11:40:29.051Z,44.80
2017-09-02T11:42:57.594Z,44.70
2017-09-02T11:45:25.882Z,44.50
2017-09-02T11:47:54.154Z,43.30
2017-09-02T11:50:22.438Z,42.80
2017-09-02T11:52:59.248Z,42.00
2017-09-02T11:55:39.187Z,40.80
2017-09-02T11:58:07.950Z,40.70
2017-09-02T12:00:36.250Z,40.90
2017-09-02T12:03:04.509Z,41.50
2017-09-02T12:05:32.814Z,42.10
2017-09-02T12:08:01.097Z,42.60
2017-09-02T12:10:29.344Z,44.20
2017-09-02T12:12:57.652Z,43.90
2017-09-02T12:15:25.946Z,43.80
2017-09-02T12:17:54.324Z,44.40
2017-09-02T12:20:22.610Z,44.50
2017-09-02T12:22:50.887Z,45.30
2017-09-02T12:25:19.153Z,45.00
2017-09-02T12:27:47.446Z,46.00
2017-09-02T12:30:15.703Z,47.30
2017-09-02T12:32:43.997Z,47.50
2017-09-02T12:35:12.249Z,46.50
2017-09-02T12:37:40.501Z,46.30
2017-09-02T12:40:08.847Z,45.70
2017-09-02T12:42:37.133Z,46.30
2017-09-02T12:45:05.384Z,46.40
2017-09-02T12:47:33.692Z,47.30
2017-09-02T12:50:01.972Z,47.50
2017-09-02T12:52:30.257Z,46.50
2017-09-02T12:54:58.575Z,46.70
2017-09-02T12:57:26.822Z,46.30
2017-09-02T12:59:55.082Z,46.30
2017-09-02T13:02:23.379Z,45.80
2017-09-02T13:04:51.664Z,45.30
2017-09-02T13:07:19.941Z,45.50
2017-09-02T13:09:48.203Z,45.70
2017-09-02T13:12:16.446Z,45.60
2017-09-02T13:14:44.712Z,45.00
2017-09-02T13:17:12.997Z,45.00
2017-09-02T13:19:41.335Z,45.10
2017-09-02T13:22:09.579Z,45.10
2017-09-02T13:24:38.598Z,46.20
2017-09-02T13:27:06.841Z,46.20
2017-09-02T13:29:35.094Z,46.30
2017-09-02T13:32:03.359Z,47.30
2017-09-02T13:34:31.614Z,48.10
2017-09-02T13:36:59.851Z,48.70
2017-09-02T13:39:28.208Z,48.90
2017-09-02T13:41:57.204Z,49.50
2017-09-02T13:44:25.443Z,49.50
2017-09-02T13:46:54.466Z,49.60
2017-09-02T13:49:22.764Z,49.50
2017-09-02T13:51:51.013Z,49.70
2017-09-02T13:54:19.319Z,50.50
2017-09-02T13:56:47.609Z,51.00
2017-09-02T13:59:15.846Z,51.20
2017-09-02T14:01:44.107Z,51.70
2017-09-02T14:04:12.359Z,55.00
2017-09-02T14:06:40.621Z,56.50
2017-09-02T14:09:08.864Z,59.00
2017-09-02T14:11:37.127Z,58.70
2017-09-02T14:14:05.366Z,60.00
2017-09-02T14:16:33.618Z,59.20
2017-09-02T14:19:01.965Z,60.20
2017-09-02T14:21:30.190Z,61.50
2017-09-02T14:23:58.439Z,63.80
2017-09-02T14:26:26.811Z,64.10
2017-09-02T14:28:55.032Z,64.40
2017-09-02T14:31:23.330Z,65.30
2017-09-02T14:33:51.566Z,64.90
2017-09-02T14:36:19.839Z,65.10
2017-09-02T14:38:48.075Z,65.80
2017-09-02T14:41:16.396Z,65.50
2017-09-02T14:43:44.624Z,65.40
2017-09-02T14:46:12.924Z,66.10
2017-09-02T14:48:41.157Z,65.90
2017-09-02T14:51:09.394Z,66.30
2017-09-02T14:53:37.663Z,68.30
2017-09-02T14:56:05.950Z,68.20
2017-09-02T14:58:34.215Z,68.10
2017-09-02T15:01:03.352Z,68.40
2017-09-02T15:03:31.715Z,68.10
2017-09-02T15:05:59.992Z,69.20
2017-09-02T15:08:28.250Z,68.80
2017-09-02T15:10:56.546Z,68.30
2017-09-02T15:13:24.799Z,67.50
2017-09-02T15:15:53.111Z,67.90
2017-09-02T15:18:21.392Z,67.80
2017-09-02T15:20:49.638Z,69.10
2017-09-02T15:23:18.662Z,68.30
2017-09-02T15:25:46.953Z,68.20
2017-09-02T15:28:15.240Z,67.10
2017-09-02T15:30:43.487Z,65.00
2017-09-02T15:33:11.772Z,65.10
2017-09-02T15:35:40.002Z,65.50
2017-09-02T15:38:08.273Z,65.00
2017-09-02T15:40:36.511Z,65.30
2017-09-02T15:43:04.858Z,65.00
2017-09-02T15:45:33.090Z,64.60
2017-09-02T15:48:01.363Z,64.30
2017-09-02T15:50:29.615Z,63.00
2017-09-02T15:52:57.888Z,62.60
2017-09-02T15:55:26.940Z,63.00
2017-09-02T15:57:55.208Z,62.60
2017-09-02T16:00:23.504Z,62.10
2017-09-02T16:02:52.633Z,61.70
2017-09-02T16:05:20.915Z,62.90
2017-09-02T16:07:49.263Z,62.50
2017-09-02T16:10:17.558Z,62.60
2017-09-02T16:12:45.817Z,62.50
2017-09-02T16:15:14.102Z,63.00
2017-09-02T16:17:42.390Z,63.30
2017-09-02T16:20:10.806Z,63.70
2017-09-02T16:22:39.037Z,65.50
2017-09-02T16:25:07.346Z,64.80
2017-09-02T16:27:35.582Z,65.20
2017-09-02T16:30:03.849Z,65.10
2017-09-02T16:32:32.862Z,65.70
2017-09-02T16:35:01.167Z,65.70
2017-09-02T16:37:29.463Z,66.10
2017-09-02T16:39:57.758Z,66.20
2017-09-02T16:42:26.008Z,66.70
2017-09-02T16:44:54.296Z,65.90
2017-09-02T16:47:22.544Z,65.30
2017-09-02T16:49:51.225Z,65.70
2017-09-02T16:52:19.471Z,65.30
2017-09-02T16:54:48.508Z,65.70
2017-09-02T16:57:17.540Z,66.00
2017-09-02T16:59:45.805Z,65.90
2017-09-02T17:02:14.079Z,66.20
2017-09-02T17:04:42.354Z,66.60
2017-09-02T17:07:10.597Z,67.40
2017-09-02T17:09:38.870Z,67.70
2017-09-02T17:12:07.137Z,68.60
2017-09-02T17:14:35.386Z,68.60
2017-09-02T17:17:03.676Z,68.70
2017-09-02T17:19:32.027Z,69.00
2017-09-02T17:22:00.272Z,69.20
2017-09-02T17:24:28.519Z,69.40
2017-09-02T17:26:56.790Z,69.80
2017-09-02T17:29:25.039Z,70.40
2017-09-02T17:31:53.298Z,70.10
2017-09-02T17:34:21.646Z,69.50
2017-09-02T17:36:49.912Z,69.90
2017-09-02T17:39:18.217Z,69.70
2017-09-02T17:41:46.599Z,69.10
2017-09-02T17:44:14.843Z,69.60
2017-09-02T17:46:43.168Z,68.60
2017-09-02T17:49:11.435Z,68.60
2017-09-02T17:51:39.711Z,68.50
2017-09-02T17:54:08.015Z,68.20
2017-09-02T17:56:36.284Z,68.40
2017-09-02T17:59:04.602Z,68.60
2017-09-02T18:01:32.841Z,68.50
2017-09-02T18:04:01.127Z,68.40
2017-09-02T18:06:30.307Z,68.20
2017-09-02T18:08:58.568Z,68.40
2017-09-02T18:11:26.906Z,68.30
2017-09-02T18:13:55.158Z,69.10
2017-09-02T18:16:23.422Z,69.50
2017-09-02T18:18:51.726Z,69.60
2017-09-02T18:21:20.047Z,69.30
2017-09-02T18:23:48.270Z,68.70
2017-09-02T18:26:16.569Z,68.40
2017-09-02T18:28:44.869Z,68.00
2017-09-02T18:31:13.103Z,67.80
2017-09-02T18:33:41.363Z,67.90
2017-09-02T18:36:09.614Z,67.80
2017-09-02T18:38:37.845Z,69.10
2017-09-02T18:41:06.151Z,68.40
2017-09-02T18:43:36.072Z,69.00
2017-09-02T18:46:04.306Z,69.80
2017-09-02T18:48:32.563Z,69.00
2017-09-02T18:51:00.806Z,69.30
2017-09-02T18:53:29.068Z,69.40
2017-09-02T18:55:58.135Z,69.80
2017-09-02T18:58:26.368Z,69.80
2017-09-02T19:00:54.598Z,70.30
2017-09-02T19:03:22.945Z,70.60
2017-09-02T19:05:51.262Z,70.80
2017-09-02T19:08:20.666Z,70.60
2017-09-02T19:10:49.050Z,70.50
2017-09-02T19:13:17.305Z,70.70
2017-09-02T19:15:45.564Z,70.50
2017-09-02T19:18:13.866Z,70.90
2017-09-02T19:20:42.112Z,70.90
2017-09-02T19:23:10.368Z,71.40
2017-09-02T19:25:38.621Z,71.80
2017-09-02T19:28:06.881Z,71.60
2017-09-02T19:30:35.123Z,71.80
2017-09-02T19:33:03.403Z,72.20
2017-09-02T19:35:31.731Z,72.30
2017-09-02T19:37:59.979Z,72.60
2017-09-02T19:40:28.300Z,72.80
2017-09-02T19:42:56.542Z,73.40
2017-09-02T19:45:24.892Z,72.90
2017-09-02T19:47:53.135Z,73.20
2017-09-02T19:50:21.443Z,73.50
2017-09-02T19:52:49.815Z,73.60
2017-09-02T19:55:18.071Z,73.30
2017-09-02T19:57:46.366Z,73.00
2017-09-02T20:00:14.679Z,73.40
2017-09-02T20:02:42.932Z,72.20
2017-09-02T20:05:11.221Z,71.90
2017-09-02T20:07:39.468Z,71.90
2017-09-02T20:10:07.739Z,71.60
2017-09-02T20:12:36.847Z,70.70
2017-09-02T20:15:05.192Z,70.70
2017-09-02T20:17:33.534Z,70.50
2017-09-02T20:20:03.008Z,70.40
2017-09-02T20:22:32.042Z,70.30
2017-09-02T20:25:00.363Z,70.30
2017-09-02T20:27:28.586Z,70.20
2017-09-02T20:29:56.833Z,70.10
2017-09-02T20:32:25.171Z,70.10
2017-09-02T20:34:53.451Z,70.30
2017-09-02T20:37:21.686Z,70.00
2017-09-02T20:39:50.705Z,70.10
2017-09-02T20:42:19.003Z,70.00
2017-09-02T20:44:47.300Z,70.00
2017-09-02T20:47:15.556Z,70.10
2017-09-02T20:49:43.793Z,69.90
2017-09-02T20:52:12.142Z,69.90
2017-09-02T20:54:41.230Z,70.20
2017-09-02T20:57:09.514Z,70.10
2017-09-02T20:59:37.756Z,70.00
2017-09-02T21:02:06.083Z,69.80
2017-09-02T21:04:34.348Z,70.10
2017-09-02T21:07:02.641Z,70.20
2017-09-02T21:09:30.878Z,70.40
2017-09-02T21:11:59.206Z,70.70
2017-09-02T21:14:27.496Z,70.70
2017-09-02T21:16:55.768Z,70.80
2017-09-02T21:19:24.051Z,70.70
2017-09-02T21:21:52.341Z,70.80
2017-09-02T21:24:20.608Z,70.60
2017-09-02T21:26:48.863Z,70.80
2017-09-02T21:29:17.873Z,71.00
2017-09-02T21:31:46.176Z,71.00
2017-09-02T21:34:14.432Z,71.00
2017-09-02T21:36:42.771Z,71.00
2017-09-02T21:39:11.034Z,71.20
2017-09-02T21:41:39.303Z,71.10
2017-09-02T21:44:07.551Z,71.20
2017-09-02T21:46:36.681Z,71.20
2017-09-02T21:49:04.914Z,71.00
2017-09-02T21:51:33.171Z,71.10
2017-09-02T21:54:01.407Z,71.50
2017-09-02T21:56:30.219Z,71.90
2017-09-02T21:58:58.474Z,71.90
2017-09-02T22:01:26.718Z,72.10
2017-09-02T22:03:54.971Z,72.50
2017-09-02T22:06:23.207Z,72.80
2017-09-02T22:08:51.511Z,72.60
2017-09-02T22:11:19.755Z,72.80
2017-09-02T22:13:48.641Z,72.80
2017-09-02T22:16:16.879Z,73.10
2017-09-02T22:18:45.135Z,73.70
2017-09-02T22:21:13.422Z,74.30
2017-09-02T22:23:41.801Z,74.60
2017-09-02T22:26:10.091Z,74.70
2017-09-02T22:28:38.348Z,75.00
2017-09-02T22:31:06.587Z,75.50
2017-09-02T22:33:34.927Z,74.60
2017-09-02T22:36:03.238Z,74.00
2017-09-02T22:38:31.591Z,74.00
2017-09-02T22:40:59.884Z,74.30
2017-09-02T22:43:28.154Z,74.60
2017-09-02T22:45:56.452Z,74.60
2017-09-02T22:48:24.819Z,74.70
2017-09-02T22:50:53.059Z,75.00
2017-09-02T22:53:22.078Z,74.90
2017-09-02T22:55:50.381Z,74.70
2017-09-02T22:58:18.631Z,75.10
2017-09-02T23:00:46.887Z,75.30
2017-09-02T23:03:15.154Z,75.40
2017-09-02T23:05:43.494Z,76.00
2017-09-02T23:08:11.739Z,76.60
2017-09-02T23:10:40.758Z,77.10
2017-09-02T23:13:09.010Z,77.00
2017-09-02T23:15:38.047Z,77.90
2017-09-02T23:18:06.288Z,77.70
2017-09-02T23:20:34.549Z,77.50
2017-09-02T23:23:02.799Z,77.60
2017-09-02T23:25:31.064Z,77.70
2017-09-02T23:27:59.363Z,78.10
2017-09-02T23:30:27.643Z,79.00
2017-09-02T23:32:55.926Z,79.60
2017-09-02T23:35:24.241Z,80.00
2017-09-02T23:37:52.527Z,80.10
2017-09-02T23:40:20.880Z,80.10
2017-09-02T23:42:49.786Z,80.40
2017-09-02T23:45:18.089Z,80.40
2017-09-02T23:47:46.322Z,80.50
2017-09-02T23:50:14.602Z,80.40
2017-09-02T23:52:42.862Z,80.30
2017-09-02T23:55:11.889Z,80.00
2017-09-02T23:57:40.743Z,79.90
